Time;durP1;ratioP1;P1;durP2;ratioP2;P2;SDS_P1;SDS_P2;PMS_P1;PMS_P2;Temp;Humidity;BMP_temperature;BMP_pressure;BME280_temperature;BME280_humidity;BME280_pressure;Samples;Min_cycle;Max_cycle;Signal;HPM_P1;HPM_P2
2021/09/23 00:00:24;;;;;;;10.95;9.05;;;18.20;74.50;;;;;;5096071;28;20044;-70
2021/09/23 00:05:25;;;;;;;13.13;9.35;;;18.20;74.70;;;;;;5095729;28;20083;-71
2021/09/23 00:07:53;;;;;;;11.13;8.90;;;18.20;74.70;;;;;;5095340;28;20097;-72
2021/09/23 00:10:22;;;;;;;12.23;8.10;;;18.20;74.70;;;;;;5095585;28;20076;-72
2021/09/23 00:12:49;;;;;;;12.20;9.30;;;18.20;74.80;;;;;;5095870;28;20036;-71
2021/09/23 00:15:15;;;;;;;11.57;8.48;;;18.20;74.80;;;;;;5095347;28;20052;-71
2021/09/23 00:17:51;;;;;;;9.20;8.05;;;18.20;74.80;;;;;;5095757;28;20046;-71
2021/09/23 00:20:22;;;;;;;15.43;10.50;;;18.20;74.70;;;;;;5095431;28;20075;-72
2021/09/23 00:22:48;;;;;;;10.48;9.32;;;18.10;74.50;;;;;;5095512;28;20487;-71
2021/09/23 00:25:14;;;;;;;12.82;10.20;;;18.10;74.60;;;;;;5061184;28;20043;-71
2021/09/23 00:27:40;;;;;;;13.52;10.30;;;18.20;74.70;;;;;;5095565;28;20032;-70
2021/09/23 00:30:09;;;;;;;13.00;9.98;;;18.10;74.70;;;;;;5095493;28;20040;-70
2021/09/23 00:32:36;;;;;;;14.02;10.55;;;18.10;74.70;;;;;;5095511;28;20039;-71
2021/09/23 00:35:02;;;;;;;14.10;10.82;;;18.10;74.70;;;;;;5094901;28;20043;-71
2021/09/23 00:37:28;;;;;;;13.63;10.93;;;18.00;74.70;;;;;;5095326;28;20047;-71
2021/09/23 00:39:54;;;;;;;14.60;11.48;;;18.10;74.80;;;;;;5095557;28;20347;-71
2021/09/23 00:42:20;;;;;;;14.65;12.77;;;18.10;74.80;;;;;;5095308;28;20077;-73
2021/09/23 00:44:56;;;;;;;15.35;12.55;;;18.10;74.80;;;;;;5094669;28;20522;-72
2021/09/23 00:47:22;;;;;;;15.93;12.85;;;18.10;74.40;;;;;;5094733;28;20044;-72
2021/09/23 00:49:49;;;;;;;14.07;11.02;;;18.00;74.80;;;;;;5078243;28;20051;-71
2021/09/23 00:52:15;;;;;;;17.02;12.65;;;18.00;74.80;;;;;;5060821;28;20071;-72
2021/09/23 00:54:41;;;;;;;15.43;12.50;;;18.10;74.80;;;;;;5099210;28;20076;-72
2021/09/23 00:57:06;;;;;;;22.50;16.30;;;18.10;74.90;;;;;;5081591;28;20040;-71
2021/09/23 00:59:32;;;;;;;16.30;13.85;;;18.00;74.80;;;;;;5098993;28;20419;-71
2021/09/23 01:01:58;;;;;;;19.80;14.95;;;18.00;74.80;;;;;;5098612;28;20039;-71
2021/09/23 01:04:23;;;;;;;21.92;15.88;;;18.00;74.90;;;;;;5099374;28;20075;-72
2021/09/23 01:06:51;;;;;;;21.73;16.83;;;18.00;74.90;;;;;;5081240;28;20052;-71
2021/09/23 01:09:17;;;;;;;23.45;16.30;;;18.00;74.90;;;;;;5099194;28;20083;-72
2021/09/23 01:11:43;;;;;;;21.98;16.92;;;18.00;74.90;;;;;;5080733;28;20396;-72
2021/09/23 01:14:11;;;;;;;23.42;18.73;;;18.00;74.90;;;;;;5098926;28;20051;-71
2021/09/23 01:16:37;;;;;;;23.95;18.55;;;18.00;74.80;;;;;;5099309;28;20043;-72
2021/09/23 01:19:03;;;;;;;20.63;16.70;;;18.00;75.00;;;;;;5098939;28;20063;-72
2021/09/23 01:21:30;;;;;;;26.60;19.23;;;18.00;74.90;;;;;;5098905;28;20051;-71
2021/09/23 01:23:55;;;;;;;23.38;19.33;;;18.00;74.90;;;;;;5098878;28;20040;-72
2021/09/23 01:26:29;;;;;;;26.13;18.98;;;18.00;75.00;;;;;;5098579;28;20331;-71
2021/09/23 01:28:56;;;;;;;24.48;19.45;;;18.00;75.00;;;;;;5098686;28;20066;-71
2021/09/23 01:31:23;;;;;;;29.70;21.88;;;18.00;75.00;;;;;;5098328;28;20042;-71
2021/09/23 01:33:50;;;;;;;23.98;18.25;;;18.00;75.00;;;;;;5098420;28;20383;-71
2021/09/23 01:36:16;;;;;;;26.08;20.58;;;18.00;75.10;;;;;;5098727;28;20039;-71
2021/09/23 01:38:42;;;;;;;24.70;20.23;;;18.00;75.10;;;;;;5098249;28;20050;-73
2021/09/23 01:41:10;;;;;;;26.27;20.02;;;18.00;75.80;;;;;;5098872;28;20043;-72
2021/09/23 01:43:35;;;;;;;27.42;21.35;;;18.00;75.30;;;;;;5097922;28;20044;-71
2021/09/23 01:46:01;;;;;;;27.88;19.65;;;18.00;75.30;;;;;;5098421;28;20032;-71
2021/09/23 01:48:27;;;;;;;26.17;21.23;;;18.00;75.30;;;;;;5098165;28;20054;-72
2021/09/23 01:50:52;;;;;;;26.30;19.58;;;18.00;75.30;;;;;;5098220;28;20070;-71
2021/09/23 01:53:18;;;;;;;27.15;21.85;;;18.00;75.40;;;;;;5098136;28;20082;-72
2021/09/23 01:55:44;;;;;;;26.30;21.75;;;18.00;75.40;;;;;;5097916;28;20336;-72
2021/09/23 01:58:09;;;;;;;29.05;23.05;;;17.90;75.40;;;;;;5098299;28;20039;-72
2021/09/23 02:00:35;;;;;;;31.40;22.65;;;17.90;75.40;;;;;;5098348;28;20036;-71
2021/09/23 02:03:01;;;;;;;26.15;21.52;;;17.90;75.50;;;;;;5097258;28;20040;-72
2021/09/23 02:05:27;;;;;;;30.33;21.80;;;17.90;75.60;;;;;;5097165;28;20093;-71
2021/09/23 02:07:53;;;;;;;27.05;21.08;;;17.90;75.70;;;;;;5080124;28;20480;-71
2021/09/23 02:10:18;;;;;;;28.88;23.02;;;17.90;75.60;;;;;;5098618;28;20044;-73
2021/09/23 02:12:44;;;;;;;31.77;23.38;;;17.90;76.30;;;;;;5098068;28;20347;-71
2021/09/23 02:15:10;;;;;;;26.52;21.08;;;17.90;75.80;;;;;;5097641;28;20048;-71
2021/09/23 02:17:36;;;;;;;29.17;21.85;;;17.90;75.80;;;;;;5097995;28;20040;-71
2021/09/23 02:20:02;;;;;;;30.70;23.20;;;17.90;75.80;;;;;;5097887;28;20050;-71
2021/09/23 02:22:28;;;;;;;30.38;22.85;;;17.90;75.90;;;;;;5080047;28;20121;-71
2021/09/23 02:24:54;;;;;;;29.40;21.30;;;17.90;75.90;;;;;;5079794;28;20503;-72
2021/09/23 02:27:20;;;;;;;28.33;22.33;;;17.90;75.90;;;;;;5079508;28;20044;-73
2021/09/23 02:29:46;;;;;;;28.85;21.15;;;17.90;76.00;;;;;;5097381;28;20320;-72
2021/09/23 02:32:12;;;;;;;29.35;21.67;;;17.90;76.00;;;;;;5097378;28;20093;-71
2021/09/23 02:34:38;;;;;;;28.05;22.23;;;17.90;76.00;;;;;;5079696;28;20074;-72
2021/09/23 02:37:05;;;;;;;28.05;21.40;;;17.90;76.00;;;;;;5079541;28;20083;-71
2021/09/23 02:39:31;;;;;;;27.80;20.75;;;17.90;76.00;;;;;;5097287;28;20044;-71
2021/09/23 02:41:57;;;;;;;28.55;21.13;;;17.90;76.00;;;;;;5097531;28;20044;-72
2021/09/23 02:44:23;;;;;;;29.25;21.63;;;17.90;76.10;;;;;;5097622;28;20129;-71
2021/09/23 02:46:49;;;;;;;27.38;21.95;;;17.90;76.20;;;;;;5096984;28;20047;-71
2021/09/23 02:49:14;;;;;;;26.50;22.55;;;17.90;76.20;;;;;;5097198;28;20063;-72
2021/09/23 02:51:40;;;;;;;29.80;22.88;;;17.90;76.30;;;;;;5097365;28;20044;-71
2021/09/23 02:54:06;;;;;;;28.52;21.75;;;17.90;76.30;;;;;;5097749;28;20044;-71
2021/09/23 02:56:32;;;;;;;28.17;21.98;;;17.90;76.40;;;;;;5079414;28;20048;-73
2021/09/23 02:58:57;;;;;;;25.00;20.67;;;17.80;76.40;;;;;;5097299;28;20115;-71
2021/09/23 03:01:23;;;;;;;29.15;22.25;;;17.80;76.40;;;;;;5096924;28;20431;-71
2021/09/23 03:03:50;;;;;;;27.42;21.27;;;17.90;76.40;;;;;;5096454;28;20067;-72
2021/09/23 03:06:16;;;;;;;27.45;21.83;;;17.90;77.10;;;;;;5096941;28;20419;-73
2021/09/23 03:08:42;;;;;;;28.65;20.65;;;17.90;76.50;;;;;;5096571;28;20097;-72
2021/09/23 03:11:08;;;;;;;27.45;20.20;;;17.80;76.40;;;;;;5096578;28;20035;-72
2021/09/23 03:13:33;;;;;;;26.40;20.58;;;17.90;76.50;;;;;;5096501;28;20044;-70
2021/09/23 03:15:59;;;;;;;29.80;20.63;;;17.90;76.60;;;;;;5095870;28;20105;-71
2021/09/23 03:18:25;;;;;;;25.58;19.50;;;17.90;76.60;;;;;;5096661;28;20405;-72
2021/09/23 03:20:51;;;;;;;27.83;20.17;;;17.90;76.60;;;;;;5078766;28;20044;-71
2021/09/23 03:23:17;;;;;;;25.02;19.92;;;17.90;76.60;;;;;;5097161;28;20058;-71
2021/09/23 03:25:44;;;;;;;23.80;18.10;;;17.90;76.70;;;;;;5096626;28;20070;-71
2021/09/23 03:28:10;;;;;;;24.40;18.73;;;17.90;76.60;;;;;;5078273;28;20354;-71
2021/09/23 03:30:36;;;;;;;23.55;19.65;;;17.90;76.70;;;;;;5096365;28;20119;-73
2021/09/23 03:33:07;;;;;;;25.98;18.73;;;17.90;76.70;;;;;;5095741;28;20436;-72
2021/09/23 03:35:34;;;;;;;24.58;18.95;;;17.90;76.80;;;;;;5095850;28;20048;-70
2021/09/23 03:38:00;;;;;;;22.92;17.83;;;17.90;76.80;;;;;;5096037;28;20046;-70
2021/09/23 03:40:26;;;;;;;23.50;18.42;;;17.90;76.80;;;;;;5096348;28;20047;-71
2021/09/23 03:42:52;;;;;;;24.73;17.33;;;17.90;76.90;;;;;;5078199;28;20122;-72
2021/09/23 03:45:19;;;;;;;23.40;17.73;;;17.90;76.80;;;;;;5078007;28;20181;-72
2021/09/23 03:47:45;;;;;;;23.25;17.73;;;17.90;76.90;;;;;;5096256;28;20083;-72
2021/09/23 03:50:12;;;;;;;22.98;18.20;;;17.90;76.90;;;;;;5078391;28;20066;-71
2021/09/23 03:52:39;;;;;;;22.60;17.85;;;17.90;76.90;;;;;;5078628;28;20044;-71
2021/09/23 03:55:05;;;;;;;22.00;18.00;;;17.90;77.00;;;;;;5078601;28;20051;-70
2021/09/23 03:57:32;;;;;;;23.30;17.45;;;17.90;77.00;;;;;;5096053;28;20070;-73
2021/09/23 03:59:58;;;;;;;25.20;16.42;;;17.90;77.00;;;;;;5095868;28;20047;-71
2021/09/23 04:02:24;;;;;;;25.45;17.73;;;17.90;77.10;;;;;;5095147;28;20115;-71
2021/09/23 04:04:50;;;;;;;20.95;17.35;;;17.90;77.20;;;;;;5096197;28;20453;-71
2021/09/23 04:07:16;;;;;;;22.35;17.00;;;17.90;77.30;;;;;;5095910;28;20055;-71
2021/09/23 04:09:41;;;;;;;25.83;16.70;;;17.90;77.40;;;;;;5077595;28;20047;-71
2021/09/23 04:12:07;;;;;;;18.83;15.30;;;17.90;77.40;;;;;;5095596;28;20039;-71
2021/09/23 04:14:33;;;;;;;20.67;14.45;;;17.90;77.40;;;;;;5078290;28;20048;-70
2021/09/23 04:16:59;;;;;;;22.25;15.82;;;17.90;77.40;;;;;;5095623;28;20141;-71
2021/09/23 04:19:25;;;;;;;19.55;14.95;;;17.90;77.40;;;;;;5095520;28;20386;-71
2021/09/23 04:21:51;;;;;;;20.67;15.55;;;17.90;77.40;;;;;;5077338;28;20054;-71
2021/09/23 04:24:17;;;;;;;22.63;16.25;;;18.00;77.50;;;;;;5077642;28;20058;-72
2021/09/23 04:26:44;;;;;;;20.58;15.18;;;18.00;77.50;;;;;;5095235;28;20044;-72
2021/09/23 04:29:09;;;;;;;22.45;14.65;;;17.90;77.50;;;;;;5095489;28;20040;-71
2021/09/23 04:31:35;;;;;;;17.60;14.20;;;18.00;77.50;;;;;;5095072;28;20066;-73
2021/09/23 04:34:01;;;;;;;19.98;14.25;;;18.00;77.50;;;;;;5095533;28;20054;-71
2021/09/23 04:36:27;;;;;;;16.85;13.25;;;18.00;77.50;;;;;;5094872;28;20047;-71
2021/09/23 04:38:53;;;;;;;17.10;12.93;;;18.00;77.50;;;;;;5095169;28;20032;-71
2021/09/23 04:41:19;;;;;;;13.93;12.40;;;18.00;77.50;;;;;;5095252;28;20032;-72
2021/09/23 04:43:46;;;;;;;18.48;12.73;;;18.00;77.50;;;;;;5060101;28;20044;-70
2021/09/23 04:46:13;;;;;;;13.57;10.80;;;18.00;77.50;;;;;;5095420;28;20484;-72
2021/09/23 04:48:38;;;;;;;15.25;10.52;;;18.00;77.50;;;;;;5077218;28;20047;-73
2021/09/23 04:51:04;;;;;;;15.38;10.45;;;18.00;77.50;;;;;;5077899;28;20062;-71
2021/09/23 04:53:30;;;;;;;14.25;10.45;;;18.00;77.60;;;;;;5095380;28;20147;-70
2021/09/23 04:55:55;;;;;;;17.40;9.57;;;17.90;77.60;;;;;;5094867;28;20514;-70
2021/09/23 04:58:21;;;;;;;14.27;8.35;;;17.90;77.80;;;;;;5094232;28;20409;-71
2021/09/23 05:00:47;;;;;;;12.63;6.80;;;17.90;77.90;;;;;;5094751;28;20123;-70
2021/09/23 05:03:14;;;;;;;12.80;6.75;;;18.00;77.40;;;;;;5094693;28;20117;-70
2021/09/23 05:05:40;;;;;;;13.05;5.95;;;18.10;77.00;;;;;;5092139;28;20039;-73
2021/09/23 05:08:06;;;;;;;9.82;5.40;;;18.10;76.70;;;;;;5077028;28;20050;-72
2021/09/23 05:10:35;;;;;;;10.73;6.15;;;18.20;76.60;;;;;;5094928;28;20044;-70
2021/09/23 05:13:01;;;;;;;9.52;5.32;;;18.20;76.30;;;;;;5094541;28;20113;-70
2021/09/23 05:15:27;;;;;;;10.20;5.25;;;18.30;76.00;;;;;;5095048;28;20086;-71
2021/09/23 05:17:52;;;;;;;12.25;4.85;;;18.30;75.80;;;;;;5094707;28;20084;-71
2021/09/23 05:20:18;;;;;;;7.15;4.65;;;18.30;75.60;;;;;;5094980;28;20075;-71
2021/09/23 05:22:44;;;;;;;7.95;4.70;;;18.30;75.50;;;;;;5095345;28;20061;-71
2021/09/23 05:25:10;;;;;;;11.13;4.68;;;18.30;75.30;;;;;;5094839;28;20347;-69
2021/09/23 05:27:37;;;;;;;10.57;5.20;;;18.30;75.40;;;;;;5093289;28;20039;-70
2021/09/23 05:30:06;;;;;;;8.50;4.90;;;18.30;75.10;;;;;;5094528;28;20443;-71
2021/09/23 05:32:31;;;;;;;7.03;3.90;;;18.30;75.10;;;;;;5094599;28;20468;-72
2021/09/23 05:34:57;;;;;;;8.55;4.40;;;18.30;75.40;;;;;;5095132;28;20097;-72
2021/09/23 05:37:23;;;;;;;11.80;4.43;;;18.40;75.90;;;;;;5094595;28;20397;-72
2021/09/23 05:39:48;;;;;;;10.25;4.38;;;18.40;76.10;;;;;;5096581;28;20040;-71
2021/09/23 05:42:14;;;;;;;9.70;4.00;;;18.40;76.20;;;;;;5098081;28;20113;-72
2021/09/23 05:44:40;;;;;;;5.72;3.30;;;18.50;76.40;;;;;;5098348;28;20040;-73
2021/09/23 05:47:06;;;;;;;8.63;3.28;;;18.60;76.50;;;;;;5098033;28;20099;-73
2021/09/23 05:49:32;;;;;;;9.43;3.70;;;18.60;76.40;;;;;;5080692;28;20363;-72
2021/09/23 05:51:59;;;;;;;7.97;3.63;;;18.70;76.50;;;;;;5098154;28;20044;-72
2021/09/23 05:54:26;;;;;;;7.25;3.10;;;18.70;76.50;;;;;;5098025;28;20054;-74
2021/09/23 05:56:52;;;;;;;9.45;3.28;;;18.80;76.50;;;;;;5098743;28;20114;-72
2021/09/23 05:59:18;;;;;;;12.95;3.50;;;18.80;76.60;;;;;;5098099;28;20055;-72
2021/09/23 06:01:44;;;;;;;12.70;4.15;;;18.90;76.60;;;;;;5079509;28;20043;-70
2021/09/23 06:04:10;;;;;;;8.88;3.78;;;18.70;75.60;;;;;;5079864;28;20044;-71
2021/09/23 06:06:36;;;;;;;11.95;3.65;;;18.60;75.80;;;;;;5063348;28;20082;-75
2021/09/23 06:09:03;;;;;;;10.85;3.85;;;18.50;76.40;;;;;;5097067;28;20043;-70
2021/09/23 06:11:30;;;;;;;12.13;4.22;;;18.60;77.00;;;;;;5079486;28;20347;-73
2021/09/23 06:13:56;;;;;;;10.45;3.55;;;18.60;76.10;;;;;;5097850;28;20036;-77
2021/09/23 06:16:22;;;;;;;13.68;5.35;;;18.60;76.50;;;;;;5080692;28;20051;-76
2021/09/23 06:18:48;;;;;;;9.30;4.07;;;18.70;75.80;;;;;;5097328;28;20032;-70
2021/09/23 06:21:14;;;;;;;7.97;4.07;;;18.70;75.40;;;;;;5097670;28;20109;-71
2021/09/23 06:23:40;;;;;;;9.60;4.00;;;18.60;75.50;;;;;;5098148;28;20036;-70
2021/09/23 06:26:08;;;;;;;9.98;3.80;;;18.50;75.60;;;;;;5097565;28;20040;-75
2021/09/23 06:28:34;;;;;;;10.68;4.25;;;18.40;76.10;;;;;;5055446;28;20141;-78
2021/09/23 06:31:02;;;;;;;8.80;3.50;;;18.50;76.10;;;;;;5088679;28;20128;-75
2021/09/23 06:33:27;;;;;;;7.47;3.40;;;18.50;75.50;;;;;;5087943;28;20047;-75
2021/09/23 06:35:53;;;;;;;7.07;3.67;;;18.60;75.10;;;;;;5092626;28;20115;-76
2021/09/23 06:38:19;;;;;;;7.35;2.80;;;18.70;74.70;;;;;;5075747;28;20047;-77
2021/09/23 06:40:45;;;;;;;8.77;2.97;;;18.70;73.70;;;;;;5075710;28;20076;-76
2021/09/23 06:43:10;;;;;;;8.18;2.35;;;18.60;74.10;;;;;;5096909;28;20157;-77
2021/09/23 06:45:36;;;;;;;4.70;2.30;;;18.60;73.90;;;;;;5078635;28;20458;-75
2021/09/23 06:48:02;;;;;;;5.80;2.40;;;18.60;73.80;;;;;;5077912;28;20123;-76
2021/09/23 06:50:28;;;;;;;6.07;2.28;;;18.70;73.70;;;;;;5061220;28;20052;-77
2021/09/23 06:52:54;;;;;;;5.60;1.90;;;18.70;73.50;;;;;;5079515;28;20047;-77
2021/09/23 06:55:20;;;;;;;7.45;2.50;;;18.60;73.30;;;;;;5096786;28;20046;-75
2021/09/23 06:57:46;;;;;;;6.85;1.98;;;18.60;73.50;;;;;;5079042;28;20052;-80
2021/09/23 07:00:12;;;;;;;4.97;2.28;;;18.60;73.10;;;;;;5096619;28;20362;-78
2021/09/23 07:02:38;;;;;;;6.63;1.98;;;18.60;73.30;;;;;;5077152;28;20040;-78
2021/09/23 07:05:05;;;;;;;4.72;1.67;;;18.50;73.00;;;;;;5096498;28;20416;-76
2021/09/23 07:07:31;;;;;;;6.13;1.95;;;18.50;73.00;;;;;;5075797;28;21279;-76
2021/09/23 07:10:01;;;;;;;5.38;1.63;;;18.50;72.90;;;;;;5076936;28;20075;-79
2021/09/23 07:12:27;;;;;;;5.63;1.85;;;18.50;73.00;;;;;;5073417;28;20347;-76
2021/09/23 07:14:53;;;;;;;6.95;1.50;;;18.40;72.90;;;;;;5076406;28;20132;-77
2021/09/23 07:17:18;;;;;;;5.10;1.52;;;18.40;73.10;;;;;;5078233;28;20426;-79
2021/09/23 07:19:44;;;;;;;9.13;1.83;;;18.40;73.10;;;;;;5078282;28;20036;-75
2021/09/23 07:22:10;;;;;;;14.70;2.60;;;18.40;75.10;;;;;;5078543;28;20435;-76
2021/09/23 07:24:36;;;;;;;6.28;1.77;;;18.40;74.20;;;;;;5078462;28;20072;-75
2021/09/23 07:27:03;;;;;;;11.57;1.70;;;18.50;73.50;;;;;;5078249;28;20044;-75
2021/09/23 07:29:29;;;;;;;8.23;2.20;;;18.50;73.20;;;;;;5096110;28;20048;-76
2021/09/23 07:31:55;;;;;;;5.13;1.55;;;18.40;73.40;;;;;;5075604;28;20333;-76
2021/09/23 07:34:21;;;;;;;8.15;1.60;;;18.40;73.90;;;;;;5075239;28;20063;-75
2021/09/23 07:36:46;;;;;;;7.15;1.95;;;18.40;74.00;;;;;;5078582;28;20059;-76
2021/09/23 07:39:13;;;;;;;5.57;1.75;;;18.40;74.00;;;;;;5095568;28;20438;-76
2021/09/23 07:41:41;;;;;;;6.95;1.50;;;18.40;74.00;;;;;;5076145;28;20051;-73
2021/09/23 07:44:09;;;;;;;5.20;1.90;;;18.50;74.00;;;;;;5077647;28;20044;-75
2021/09/23 07:46:35;;;;;;;6.03;1.67;;;18.50;73.80;;;;;;5060997;28;20127;-74
2021/09/23 07:49:01;;;;;;;6.63;1.98;;;18.60;73.70;;;;;;5093330;28;20194;-76
2021/09/23 07:51:27;;;;;;;5.43;1.73;;;18.50;73.50;;;;;;5095669;28;20470;-75
2021/09/23 07:53:53;;;;;;;8.18;1.95;;;18.60;73.50;;;;;;5077287;28;20131;-74
2021/09/23 07:56:19;;;;;;;5.97;1.88;;;18.60;73.50;;;;;;5090514;28;20062;-75
2021/09/23 07:58:44;;;;;;;9.23;2.50;;;18.60;73.50;;;;;;5074589;28;20136;-77
2021/09/23 08:01:10;;;;;;;5.15;2.17;;;18.60;73.50;;;;;;5095297;28;20450;-75
2021/09/23 08:03:36;;;;;;;6.80;1.85;;;18.60;73.60;;;;;;5077473;28;20051;-74
2021/09/23 08:06:02;;;;;;;5.38;2.00;;;18.60;73.70;;;;;;5094050;28;20090;-76
2021/09/23 08:08:28;;;;;;;12.15;2.45;;;18.60;73.70;;;;;;5077719;28;20351;-77
2021/09/23 08:10:54;;;;;;;7.28;2.33;;;18.70;73.80;;;;;;5077730;28;20048;-71
2021/09/23 08:13:20;;;;;;;6.57;2.28;;;18.70;73.80;;;;;;5095489;28;20474;-75
2021/09/23 08:15:46;;;;;;;13.75;2.05;;;18.70;74.20;;;;;;5093766;28;20090;-75
2021/09/23 08:18:16;;;;;;;12.02;2.17;;;18.70;74.60;;;;;;5077808;28;20093;-75
2021/09/23 08:20:42;;;;;;;14.95;2.33;;;18.70;74.50;;;;;;5075913;28;20043;-75
2021/09/23 08:23:09;;;;;;;9.57;1.92;;;18.80;74.60;;;;;;5081520;28;20121;-75
2021/09/23 08:25:35;;;;;;;9.02;1.95;;;18.70;75.00;;;;;;5074996;28;20395;-75
2021/09/23 08:28:00;;;;;;;7.63;2.58;;;18.70;75.30;;;;;;5075994;28;20335;-73
2021/09/23 08:30:26;;;;;;;10.80;2.40;;;18.80;75.70;;;;;;5078841;28;20047;-73
2021/09/23 08:32:52;;;;;;;10.02;2.42;;;18.80;75.60;;;;;;5077167;28;20044;-70
2021/09/23 08:35:19;;;;;;;9.32;2.65;;;18.90;75.40;;;;;;5070081;28;20044;-71
2021/09/23 08:37:45;;;;;;;8.95;2.40;;;18.80;75.30;;;;;;5077256;28;20044;-70
2021/09/23 08:40:13;;;;;;;5.63;1.45;;;18.90;76.00;;;;;;5095309;28;20047;-69
2021/09/23 08:42:40;;;;;;;12.20;2.33;;;18.90;75.40;;;;;;5074850;28;20097;-70
2021/09/23 08:45:07;;;;;;;5.53;1.80;;;18.90;75.20;;;;;;5090642;28;20028;-70
2021/09/23 08:47:34;;;;;;;8.00;1.80;;;18.90;74.90;;;;;;5076992;28;20056;-70
2021/09/23 08:50:01;;;;;;;11.20;2.40;;;18.90;74.50;;;;;;5095564;28;20044;-70
2021/09/23 08:52:28;;;;;;;11.27;2.72;;;18.90;74.30;;;;;;5095298;28;20056;-72
2021/09/23 08:54:54;;;;;;;6.50;2.42;;;18.80;74.30;;;;;;5060578;28;20062;-71
2021/09/23 08:57:20;;;;;;;8.63;1.85;;;18.90;74.40;;;;;;5076976;28;20455;-71
2021/09/23 08:59:45;;;;;;;7.03;1.92;;;18.90;74.50;;;;;;5095165;28;20043;-71
2021/09/23 09:02:23;;;;;;;12.93;2.13;;;18.90;74.50;;;;;;5077172;28;20047;-71
2021/09/23 09:04:54;;;;;;;9.15;1.77;;;18.90;74.50;;;;;;5073503;28;20456;-74
2021/09/23 09:07:28;;;;;;;7.95;2.22;;;18.90;74.60;;;;;;5057319;28;20055;-70
2021/09/23 09:10:05;;;;;;;5.47;1.63;;;18.90;74.60;;;;;;5075123;28;20394;-71
2021/09/23 09:12:32;;;;;;;6.03;2.17;;;18.90;74.50;;;;;;5057472;28;20037;-70
2021/09/23 09:14:59;;;;;;;6.78;1.65;;;18.90;74.60;;;;;;5077774;28;20123;-71
2021/09/23 09:17:25;;;;;;;7.57;1.95;;;18.90;74.60;;;;;;5079419;28;20044;-72
2021/09/23 09:20:02;;;;;;;5.57;1.75;;;18.90;74.50;;;;;;5044566;28;20051;-72
2021/09/23 09:22:30;;;;;;;3.67;1.20;;;18.90;74.50;;;;;;5078782;28;20128;-72
2021/09/23 09:25:10;;;;;;;5.93;2.10;;;18.90;74.50;;;;;;5061147;28;20455;-70
2021/09/23 09:27:38;;;;;;;5.03;1.48;;;18.90;74.50;;;;;;5060994;28;20047;-70
2021/09/23 09:30:21;;;;;;;6.25;1.58;;;18.90;74.50;;;;;;5077682;28;20056;-69
2021/09/23 09:32:50;;;;;;;5.25;1.88;;;19.00;74.50;;;;;;5062308;28;20438;-71
2021/09/23 09:35:17;;;;;;;4.43;1.13;;;18.90;74.50;;;;;;5098708;28;20504;-71
2021/09/23 09:37:46;;;;;;;5.30;1.58;;;18.90;74.40;;;;;;5081184;28;20062;-73
2021/09/23 09:40:14;;;;;;;3.88;1.55;;;19.00;74.40;;;;;;5098875;28;20115;-70
2021/09/23 09:42:43;;;;;;;5.90;1.55;;;18.90;74.30;;;;;;5098575;28;20035;-71
2021/09/23 09:45:19;;;;;;;7.20;2.28;;;19.00;74.40;;;;;;5098411;28;20044;-72
2021/09/23 09:47:52;;;;;;;5.40;1.88;;;19.00;74.30;;;;;;5098202;28;20520;-71
2021/09/23 09:50:37;;;;;;;6.88;1.85;;;19.00;74.30;;;;;;5081048;28;20048;-71
2021/09/23 09:53:06;;;;;;;5.63;1.50;;;19.00;74.20;;;;;;5080748;28;20131;-72
2021/09/23 09:55:39;;;;;;;4.93;1.52;;;19.00;74.30;;;;;;5099012;28;20056;-71
2021/09/23 09:58:06;;;;;;;5.57;1.42;;;19.00;74.20;;;;;;5080293;28;20044;-72
2021/09/23 10:00:33;;;;;;;5.22;1.70;;;19.00;74.20;;;;;;5080457;28;20050;-71
2021/09/23 10:03:00;;;;;;;7.35;1.67;;;19.00;74.20;;;;;;5076424;28;20451;-73
2021/09/23 10:05:26;;;;;;;6.25;1.98;;;19.00;74.10;;;;;;5088432;28;20055;-71
2021/09/23 10:07:55;;;;;;;4.35;1.52;;;19.00;74.10;;;;;;5060333;28;20054;-72
2021/09/23 10:10:31;;;;;;;10.05;1.98;;;19.00;74.10;;;;;;5060102;28;20040;-73
2021/09/23 10:13:01;;;;;;;6.63;1.67;;;19.00;74.10;;;;;;5077829;28;20491;-71
2021/09/23 10:15:28;;;;;;;8.75;2.22;;;19.00;74.10;;;;;;5077304;28;20120;-71
2021/09/23 10:17:59;;;;;;;6.80;1.27;;;19.00;74.00;;;;;;5059941;28;20040;-72
2021/09/23 10:20:26;;;;;;;9.65;2.03;;;19.00;74.10;;;;;;5077582;28;20509;-74
2021/09/23 10:22:53;;;;;;;6.57;2.08;;;19.00;74.10;;;;;;5060282;28;20455;-73
2021/09/23 10:25:30;;;;;;;8.18;2.63;;;19.00;73.90;;;;;;5058894;28;20068;-71
2021/09/23 10:27:58;;;;;;;6.85;2.03;;;19.00;74.10;;;;;;5077404;28;20127;-70
2021/09/23 10:30:44;;;;;;;11.95;2.33;;;19.00;74.20;;;;;;5077465;28;20449;-72
2021/09/23 10:33:11;;;;;;;10.82;2.42;;;19.00;74.20;;;;;;5089417;28;20409;-70
2021/09/23 10:35:37;;;;;;;7.43;1.90;;;18.90;74.20;;;;;;5079446;28;20455;-69
2021/09/23 10:38:06;;;;;;;6.53;2.00;;;19.00;74.40;;;;;;5097311;28;20051;-70
2021/09/23 10:40:35;;;;;;;5.75;1.90;;;19.00;74.50;;;;;;5097239;28;20048;-70
2021/09/23 10:43:10;;;;;;;9.82;2.17;;;18.90;74.50;;;;;;5097326;28;20044;-70
2021/09/23 10:45:36;;;;;;;5.82;1.77;;;19.00;74.60;;;;;;5079407;28;20036;-70
2021/09/23 10:48:03;;;;;;;7.43;1.95;;;18.90;74.70;;;;;;5079120;28;20044;-70
2021/09/23 10:50:32;;;;;;;9.38;2.53;;;18.90;74.70;;;;;;5096989;28;20173;-69
2021/09/23 10:52:59;;;;;;;10.60;2.22;;;18.90;74.70;;;;;;5096948;28;20055;-69
2021/09/23 10:55:27;;;;;;;8.70;1.98;;;18.90;74.70;;;;;;5078990;28;20451;-71
2021/09/23 10:57:54;;;;;;;5.47;1.88;;;18.90;74.70;;;;;;5079111;28;20213;-70
2021/09/23 11:00:25;;;;;;;9.18;1.90;;;18.90;74.70;;;;;;5096505;28;20050;-70
2021/09/23 11:02:52;;;;;;;6.47;2.30;;;18.90;74.70;;;;;;5078690;28;20044;-69
2021/09/23 11:05:20;;;;;;;11.18;2.45;;;19.00;74.80;;;;;;5096691;28;20043;-71
2021/09/23 11:07:46;;;;;;;11.68;2.25;;;18.90;74.80;;;;;;5096926;28;20338;-71
2021/09/23 11:10:23;;;;;;;7.30;1.90;;;19.00;74.80;;;;;;5078874;28;20044;-70
2021/09/23 11:12:52;;;;;;;6.47;2.00;;;19.00;74.80;;;;;;5096449;28;20113;-70
2021/09/23 11:15:21;;;;;;;8.52;2.33;;;18.90;74.80;;;;;;5096418;28;20495;-70
2021/09/23 11:17:49;;;;;;;7.90;2.17;;;18.90;74.80;;;;;;5078640;28;20055;-70
2021/09/23 11:20:23;;;;;;;12.50;2.50;;;19.00;74.90;;;;;;5096342;28;20040;-70
2021/09/23 11:22:57;;;;;;;5.88;1.95;;;18.90;74.90;;;;;;5076139;28;20040;-70
2021/09/23 11:25:25;;;;;;;10.13;2.05;;;19.00;74.90;;;;;;5076070;28;20052;-71
2021/09/23 11:27:53;;;;;;;6.65;1.55;;;19.00;75.00;;;;;;5058200;28;20036;-69
2021/09/23 11:30:24;;;;;;;8.25;1.90;;;19.00;75.00;;;;;;5058569;28;20471;-70
2021/09/23 11:32:57;;;;;;;8.95;2.25;;;19.00;75.00;;;;;;5067689;28;20048;-70
2021/09/23 11:35:29;;;;;;;5.30;1.85;;;19.00;75.00;;;;;;5095860;28;20047;-69
2021/09/23 11:37:57;;;;;;;4.90;1.98;;;19.00;75.00;;;;;;5095562;28;20071;-70
2021/09/23 11:40:30;;;;;;;7.55;2.53;;;19.00;75.10;;;;;;5096166;28;20052;-70
2021/09/23 11:42:59;;;;;;;8.55;2.05;;;19.00;75.10;;;;;;5096150;28;20078;-69
2021/09/23 11:45:28;;;;;;;7.38;2.28;;;19.00;75.10;;;;;;5095988;28;20044;-69
2021/09/23 11:47:57;;;;;;;4.65;1.70;;;19.00;75.10;;;;;;5078158;28;20080;-69
2021/09/23 11:50:28;;;;;;;8.38;1.85;;;19.00;75.00;;;;;;5095668;28;20435;-70
2021/09/23 11:53:17;;;;;;;9.30;2.13;;;19.00;75.00;;;;;;5095799;28;20451;-69
2021/09/23 11:55:57;;;;;;;6.95;1.83;;;19.00;74.90;;;;;;5077842;28;20044;-69
2021/09/23 11:58:24;;;;;;;6.05;1.65;;;19.00;74.90;;;;;;5095802;28;20043;-70
2021/09/23 12:00:51;;;;;;;7.78;2.03;;;19.10;74.90;;;;;;5095753;28;20048;-69
2021/09/23 12:03:18;;;;;;;5.32;1.65;;;19.10;74.90;;;;;;5077551;28;20405;-71
2021/09/23 12:05:46;;;;;;;6.30;1.88;;;19.10;74.90;;;;;;5096180;28;20059;-69
2021/09/23 12:08:21;;;;;;;7.47;1.88;;;19.00;74.80;;;;;;5095729;28;20048;-69
2021/09/23 12:10:53;;;;;;;5.35;1.60;;;19.00;74.80;;;;;;5095626;28;20044;-71
2021/09/23 12:13:34;;;;;;;8.23;1.88;;;19.10;74.80;;;;;;5095539;28;20052;-70
2021/09/23 12:16:07;;;;;;;7.10;1.63;;;19.10;74.70;;;;;;5095665;28;20126;-71
2021/09/23 12:18:33;;;;;;;4.35;1.70;;;19.10;74.80;;;;;;5078123;28;20592;-69
2021/09/23 12:21:03;;;;;;;8.52;2.15;;;19.10;74.80;;;;;;5096361;28;20315;-69
2021/09/23 12:23:37;;;;;;;8.38;2.40;;;19.10;74.70;;;;;;5095572;28;20044;-70
2021/09/23 12:26:14;;;;;;;3.30;1.60;;;19.10;74.70;;;;;;5096060;28;20054;-70
2021/09/23 12:28:50;;;;;;;5.30;1.63;;;19.10;74.70;;;;;;5078035;28;20048;-70
2021/09/23 12:31:28;;;;;;;4.30;1.98;;;19.10;74.70;;;;;;5077930;28;20500;-69
2021/09/23 12:34:02;;;;;;;5.45;1.48;;;19.10;74.70;;;;;;5077027;28;20122;-70
2021/09/23 12:36:29;;;;;;;;;;;19.10;74.70;;;;;;5095183;28;20439;-70
2021/09/23 12:39:17;;;;;;;5.95;1.58;;;19.10;74.70;;;;;;5094623;28;19991;-70
2021/09/23 12:42:03;;;;;;;4.43;2.05;;;19.10;74.90;;;;;;5095416;28;20036;-70